createdAt,value
2022-10-03T00:00:21.727Z,9.50
2022-10-03T00:03:07.443Z,9.50
2022-10-03T00:05:57.297Z,9.50
2022-10-03T00:08:33.127Z,9.50
2022-10-03T00:11:21.726Z,9.40
2022-10-03T00:14:30.081Z,9.40
2022-10-03T00:17:06.079Z,9.40
2022-10-03T00:19:43.196Z,9.40
2022-10-03T00:22:19.063Z,9.30
2022-10-03T00:24:45.893Z,9.30
2022-10-03T00:27:37.763Z,9.30
2022-10-03T00:30:22.020Z,9.30
2022-10-03T00:33:07.347Z,9.30
2022-10-03T00:35:57.468Z,9.20
2022-10-03T00:38:40.310Z,9.20
2022-10-03T00:41:28.242Z,9.20
2022-10-03T00:44:25.827Z,9.20
2022-10-03T00:47:16.284Z,9.10
2022-10-03T00:50:10.283Z,9.10
2022-10-03T00:52:52.164Z,9.10
2022-10-03T00:55:44.281Z,9.10
2022-10-03T00:58:26.590Z,9.10
2022-10-03T01:01:03.580Z,9.10
2022-10-03T01:03:51.363Z,9.10
2022-10-03T01:06:38.305Z,9.00
2022-10-03T01:09:17.303Z,9.10
2022-10-03T01:12:01.715Z,9.10
2022-10-03T01:14:37.895Z,9.10
2022-10-03T01:17:23.398Z,9.00
2022-10-03T01:20:22.434Z,9.00
2022-10-03T01:22:58.168Z,9.00
2022-10-03T01:25:25.000Z,9.00
2022-10-03T01:28:22.751Z,9.00
2022-10-03T01:30:58.937Z,9.00
2022-10-03T01:33:33.300Z,9.00
2022-10-03T01:36:03.612Z,9.00
2022-10-03T01:38:40.000Z,8.90
2022-10-03T01:41:11.515Z,8.90
2022-10-03T01:43:51.632Z,8.90
2022-10-03T01:46:20.461Z,8.90
2022-10-03T01:49:02.806Z,8.80
2022-10-03T01:51:50.870Z,8.80
2022-10-03T01:54:42.039Z,8.80
2022-10-03T01:57:27.996Z,8.80
2022-10-03T02:00:18.942Z,8.80
2022-10-03T02:02:53.373Z,8.80
2022-10-03T02:05:38.282Z,8.90
2022-10-03T02:08:23.670Z,9.00
2022-10-03T02:11:09.385Z,9.00
2022-10-03T02:13:44.112Z,9.00
2022-10-03T02:16:22.727Z,9.00
2022-10-03T02:19:03.280Z,9.00
2022-10-03T02:21:32.973Z,9.00
2022-10-03T02:24:15.065Z,9.00
2022-10-03T02:26:50.826Z,9.00
2022-10-03T02:29:35.625Z,9.00
2022-10-03T02:32:40.820Z,9.00
2022-10-03T02:35:08.433Z,9.00
2022-10-03T02:37:59.955Z,9.00
2022-10-03T02:40:56.832Z,9.00
2022-10-03T02:43:50.455Z,9.00
2022-10-03T02:46:35.474Z,8.90
2022-10-03T02:49:40.027Z,8.80
2022-10-03T02:52:31.064Z,8.70
2022-10-03T02:55:54.565Z,8.70
2022-10-03T02:59:02.501Z,8.70
2022-10-03T03:01:35.168Z,8.60
2022-10-03T03:04:01.993Z,8.60
2022-10-03T03:07:03.471Z,8.60
2022-10-03T03:10:01.108Z,8.60
2022-10-03T03:12:52.504Z,8.60
2022-10-03T03:15:56.908Z,8.60
2022-10-03T03:18:33.467Z,8.60
2022-10-03T03:21:03.948Z,8.50
2022-10-03T03:23:41.632Z,8.50
2022-10-03T03:26:22.391Z,8.50
2022-10-03T03:29:24.259Z,8.50
2022-10-03T03:32:22.586Z,8.50
2022-10-03T03:35:01.364Z,8.50
2022-10-03T03:37:53.389Z,8.50
2022-10-03T03:40:40.448Z,8.50
2022-10-03T03:43:19.650Z,8.50
2022-10-03T03:45:54.400Z,8.60
2022-10-03T03:48:50.510Z,8.60
2022-10-03T03:51:35.093Z,8.60
2022-10-03T03:54:19.340Z,8.40
2022-10-03T03:56:49.229Z,8.40
2022-10-03T03:59:53.930Z,8.40
2022-10-03T04:02:52.322Z,8.50
2022-10-03T04:05:50.250Z,8.40
2022-10-03T04:08:45.803Z,8.40
2022-10-03T04:11:22.424Z,8.40
2022-10-03T04:14:11.188Z,8.40
2022-10-03T04:17:22.899Z,8.40
2022-10-03T04:20:32.217Z,8.40
2022-10-03T04:23:11.139Z,8.40
2022-10-03T04:25:54.767Z,8.40
2022-10-03T04:28:50.049Z,8.40
2022-10-03T04:31:34.950Z,8.40
2022-10-03T04:34:19.896Z,8.40
2022-10-03T04:37:31.482Z,8.40
2022-10-03T04:44:28.264Z,8.60
2022-10-03T04:46:58.316Z,8.40
2022-10-03T04:49:37.237Z,8.30
2022-10-03T04:52:19.787Z,8.30
2022-10-03T04:55:06.757Z,8.30
2022-10-03T04:57:43.334Z,8.30
2022-10-03T05:00:30.088Z,8.40
2022-10-03T05:03:22.523Z,8.40
2022-10-03T05:06:11.220Z,8.30
2022-10-03T05:09:10.427Z,8.30
2022-10-03T05:12:16.060Z,8.30
2022-10-03T05:14:49.644Z,8.30
2022-10-03T05:17:30.904Z,8.40
2022-10-03T05:20:03.816Z,8.30
2022-10-03T05:22:40.338Z,8.30
2022-10-03T05:25:16.078Z,8.30
2022-10-03T05:28:12.406Z,8.30
2022-10-03T05:31:07.591Z,8.30
2022-10-03T05:33:57.102Z,8.30
2022-10-03T05:36:24.016Z,8.20
2022-10-03T05:39:27.160Z,8.30
2022-10-03T05:42:26.029Z,8.30
2022-10-03T05:45:30.278Z,8.30
2022-10-03T05:48:34.718Z,8.30
2022-10-03T05:51:11.869Z,8.40
2022-10-03T05:54:16.736Z,8.50
2022-10-03T05:57:25.735Z,8.60
2022-10-03T06:00:07.077Z,9.00
2022-10-03T06:03:11.507Z,9.50
2022-10-03T06:06:12.487Z,10.00
2022-10-03T06:08:53.071Z,10.70
2022-10-03T06:11:57.276Z,11.30
2022-10-03T06:14:39.746Z,11.80
2022-10-03T06:17:25.769Z,12.70
2022-10-03T06:20:37.753Z,13.80
2022-10-03T06:23:19.537Z,14.70
2022-10-03T06:25:55.052Z,15.30
2022-10-03T06:29:02.171Z,16.20
2022-10-03T06:31:44.355Z,17.10
2022-10-03T06:34:31.400Z,17.40
2022-10-03T06:37:27.482Z,17.90
2022-10-03T06:40:25.131Z,17.40
2022-10-03T06:42:52.012Z,18.70
2022-10-03T06:46:16.237Z,19.00
2022-10-03T06:48:55.250Z,19.90
2022-10-03T06:51:47.371Z,20.60
2022-10-03T06:54:40.464Z,21.10
2022-10-03T06:57:25.196Z,21.90
2022-10-03T06:59:52.007Z,22.00
2022-10-03T07:02:51.027Z,22.10
2022-10-03T07:05:19.425Z,23.10
2022-10-03T07:08:06.156Z,22.70
2022-10-03T07:10:50.236Z,23.60
2022-10-03T07:13:43.209Z,23.10
2022-10-03T07:16:31.328Z,23.50
2022-10-03T07:19:34.718Z,23.60
2022-10-03T07:22:21.547Z,25.00
2022-10-03T07:24:54.276Z,24.50
2022-10-03T07:27:21.094Z,25.20
2022-10-03T07:30:23.938Z,26.10
2022-10-03T07:32:57.963Z,26.60
2022-10-03T07:36:08.486Z,26.40
2022-10-03T07:39:18.085Z,27.10
2022-10-03T07:42:20.060Z,25.50
2022-10-03T07:45:05.704Z,23.50
2022-10-03T07:47:47.593Z,21.50
2022-10-03T07:50:45.485Z,20.10
2022-10-03T07:53:24.619Z,18.10
2022-10-03T07:56:07.287Z,17.90
2022-10-03T07:58:58.759Z,17.60
2022-10-03T08:01:42.763Z,17.40
2022-10-03T08:04:43.662Z,17.20
2022-10-03T08:07:19.468Z,17.10
2022-10-03T08:09:54.278Z,16.60
2022-10-03T08:12:35.457Z,16.70
2022-10-03T08:15:23.807Z,16.90
2022-10-03T08:18:33.192Z,17.20
2022-10-03T08:21:03.303Z,18.00
2022-10-03T08:24:16.556Z,18.80
2022-10-03T08:27:08.385Z,19.20
2022-10-03T08:29:58.580Z,19.30
2022-10-03T08:32:48.749Z,19.40
2022-10-03T08:35:38.831Z,19.20
2022-10-03T08:38:23.820Z,19.30
2022-10-03T08:41:09.807Z,19.30
2022-10-03T08:43:55.003Z,19.50
2022-10-03T08:46:47.132Z,19.80
2022-10-03T08:49:36.397Z,21.20
2022-10-03T08:52:25.011Z,24.20
2022-10-03T08:55:16.689Z,25.40
2022-10-03T08:58:02.899Z,26.20
2022-10-03T09:00:38.104Z,26.50
2022-10-03T09:03:34.359Z,25.50
2022-10-03T09:06:24.870Z,23.40
2022-10-03T09:09:23.995Z,23.30
2022-10-03T09:12:05.433Z,26.50
2022-10-03T09:14:53.436Z,26.70
2022-10-03T09:17:49.281Z,31.20
2022-10-03T09:20:33.870Z,32.50
2022-10-03T09:23:29.624Z,35.00
2022-10-03T09:26:24.367Z,35.20
2022-10-03T09:29:08.095Z,29.40
2022-10-03T09:32:06.865Z,25.60
2022-10-03T09:34:36.425Z,24.10
2022-10-03T09:37:18.447Z,23.40
2022-10-03T09:39:57.366Z,23.40
2022-10-03T09:43:01.691Z,24.90
2022-10-03T09:46:15.995Z,30.30
2022-10-03T09:49:04.435Z,28.70
2022-10-03T09:51:49.950Z,26.10
2022-10-03T09:54:31.677Z,24.20
2022-10-03T09:57:23.239Z,23.80
2022-10-03T10:00:08.309Z,24.60
2022-10-03T10:02:41.768Z,24.60
2022-10-03T10:05:30.510Z,22.60
2022-10-03T10:08:18.471Z,21.20
2022-10-03T10:11:03.900Z,20.40
2022-10-03T10:14:06.732Z,24.20
2022-10-03T10:17:07.992Z,28.10
2022-10-03T10:19:53.787Z,27.20
2022-10-03T10:22:41.731Z,29.80
2022-10-03T10:25:09.287Z,25.90
2022-10-03T10:27:36.122Z,23.40
2022-10-03T10:30:35.677Z,21.70
2022-10-03T10:33:43.808Z,21.10
2022-10-03T10:36:28.881Z,20.80
2022-10-03T10:39:54.428Z,24.30
2022-10-03T10:42:58.815Z,27.90
2022-10-03T10:45:46.258Z,26.00
2022-10-03T10:48:46.806Z,25.60
2022-10-03T10:51:45.904Z,23.70
2022-10-03T10:54:49.061Z,23.20
2022-10-03T10:57:45.972Z,27.70
2022-10-03T11:00:18.773Z,30.40
2022-10-03T11:03:23.186Z,29.00
2022-10-03T11:06:24.083Z,26.20
2022-10-03T11:09:24.518Z,27.10
2022-10-03T11:12:41.628Z,25.40
2022-10-03T11:15:27.368Z,23.30
2022-10-03T11:18:15.689Z,22.10
2022-10-03T11:21:14.781Z,21.00
2022-10-03T11:24:01.857Z,20.50
2022-10-03T11:27:20.477Z,20.10
2022-10-03T11:30:07.646Z,20.30
2022-10-03T11:33:02.418Z,21.40
2022-10-03T11:35:54.204Z,22.50
2022-10-03T11:38:31.353Z,23.70
2022-10-03T11:41:26.205Z,24.20
2022-10-03T11:44:16.254Z,23.60
2022-10-03T11:46:58.623Z,24.70
2022-10-03T11:49:34.334Z,25.60
2022-10-03T11:52:25.769Z,25.80
2022-10-03T11:55:09.132Z,26.30
2022-10-03T11:57:39.832Z,26.70
2022-10-03T12:00:20.290Z,26.40
2022-10-03T12:03:22.587Z,25.60
2022-10-03T12:06:15.517Z,25.50
2022-10-03T12:09:20.693Z,25.00
2022-10-03T12:12:19.447Z,24.00
2022-10-03T12:14:51.384Z,23.40
2022-10-03T12:17:44.211Z,22.70
2022-10-03T12:20:23.949Z,22.20
2022-10-03T12:23:05.046Z,21.60
2022-10-03T12:25:36.742Z,21.10
2022-10-03T12:28:24.821Z,20.80
2022-10-03T12:30:56.871Z,20.70
2022-10-03T12:33:45.831Z,20.30
2022-10-03T12:36:24.143Z,20.10
2022-10-03T12:39:05.749Z,20.40
2022-10-03T12:41:42.227Z,21.00
2022-10-03T12:44:32.463Z,21.10
2022-10-03T12:47:43.904Z,21.50
2022-10-03T12:50:37.820Z,21.90
2022-10-03T12:53:17.533Z,21.90
2022-10-03T12:55:59.904Z,22.10
2022-10-03T12:58:29.775Z,22.00
2022-10-03T13:01:18.005Z,21.80
2022-10-03T13:03:56.205Z,21.40
2022-10-03T13:07:03.200Z,21.20
2022-10-03T13:09:49.847Z,20.30
2022-10-03T13:12:25.441Z,20.20
2022-10-03T13:15:19.470Z,20.30
2022-10-03T13:17:49.442Z,20.20
2022-10-03T13:20:33.952Z,20.20
2022-10-03T13:23:13.640Z,20.10
2022-10-03T13:26:15.912Z,20.20
2022-10-03T13:28:54.518Z,20.20
2022-10-03T13:31:26.960Z,20.30
2022-10-03T13:34:01.608Z,20.20
2022-10-03T13:36:44.924Z,20.00
2022-10-03T13:39:21.711Z,20.20
2022-10-03T13:42:19.382Z,20.30
2022-10-03T13:45:03.740Z,20.30
2022-10-03T13:47:39.358Z,20.30
2022-10-03T13:50:43.453Z,20.20
2022-10-03T13:53:25.681Z,20.20
2022-10-03T13:56:01.669Z,20.30
2022-10-03T13:58:32.901Z,20.50
2022-10-03T14:01:13.752Z,20.60
2022-10-03T14:04:02.360Z,20.60
2022-10-03T14:06:37.787Z,20.40
2022-10-03T14:09:23.779Z,20.10
2022-10-03T14:11:53.492Z,19.90
2022-10-03T14:14:34.381Z,19.80
2022-10-03T14:17:26.124Z,19.80
2022-10-03T14:20:24.226Z,19.60
2022-10-03T14:23:16.815Z,19.50
2022-10-03T14:26:21.496Z,19.30
2022-10-03T14:28:52.259Z,19.30
2022-10-03T14:31:45.456Z,19.40
2022-10-03T14:34:33.167Z,19.40
2022-10-03T14:37:40.551Z,19.30
2022-10-03T14:40:23.398Z,19.30
2022-10-03T14:43:02.268Z,19.20
2022-10-03T14:45:37.370Z,19.30
2022-10-03T14:48:12.586Z,19.30
2022-10-03T14:50:41.841Z,19.20
2022-10-03T14:53:21.603Z,19.10
2022-10-03T14:56:08.471Z,19.00
2022-10-03T14:58:48.932Z,18.90
2022-10-03T15:01:20.679Z,18.90
2022-10-03T15:04:12.521Z,18.90
2022-10-03T15:06:45.601Z,18.80
2022-10-03T15:09:33.774Z,18.70
2022-10-03T15:12:09.691Z,18.60
2022-10-03T15:14:43.220Z,18.60
2022-10-03T15:17:43.562Z,18.70
2022-10-03T15:20:14.696Z,18.60
2022-10-03T15:22:49.086Z,18.60
2022-10-03T15:25:25.896Z,18.50
2022-10-03T15:27:58.629Z,18.40
2022-10-03T15:30:32.005Z,18.50
2022-10-03T15:33:35.244Z,18.50
2022-10-03T15:36:11.047Z,18.50
2022-10-03T15:38:40.281Z,18.40
2022-10-03T15:41:35.149Z,18.40
2022-10-03T15:44:15.703Z,18.30
2022-10-03T15:46:52.634Z,18.30
2022-10-03T15:49:31.655Z,18.20
2022-10-03T15:52:06.958Z,18.00
2022-10-03T15:54:38.704Z,18.00
2022-10-03T15:57:08.386Z,17.90
2022-10-03T15:59:37.568Z,17.80
2022-10-03T16:02:54.145Z,17.70
2022-10-03T16:05:25.531Z,17.60
2022-10-03T16:08:07.697Z,17.40
2022-10-03T16:10:43.972Z,17.30
2022-10-03T16:13:16.986Z,17.20
2022-10-03T16:15:47.169Z,17.10
2022-10-03T16:18:20.164Z,17.00
2022-10-03T16:20:56.828Z,16.90
2022-10-03T16:23:37.925Z,16.80
2022-10-03T16:26:28.659Z,16.50
2022-10-03T16:29:13.226Z,16.30
2022-10-03T16:31:46.328Z,16.10
2022-10-03T16:34:25.747Z,16.00
2022-10-03T16:36:54.176Z,15.90
2022-10-03T16:39:25.525Z,15.90
2022-10-03T16:41:56.356Z,15.80
2022-10-03T16:44:25.129Z,15.70
2022-10-03T16:47:00.785Z,15.50
2022-10-03T16:49:52.481Z,15.40
2022-10-03T16:52:24.241Z,15.30
2022-10-03T16:55:04.629Z,15.20
2022-10-03T16:57:42.270Z,15.00
2022-10-03T17:00:21.721Z,14.90
2022-10-03T17:02:49.585Z,14.90
2022-10-03T17:05:19.543Z,14.80
2022-10-03T17:07:51.398Z,14.70
2022-10-03T17:10:28.787Z,14.70
2022-10-03T17:13:03.615Z,14.60
2022-10-03T17:15:37.206Z,14.40
2022-10-03T17:18:26.251Z,14.30
2022-10-03T17:21:01.285Z,14.30
2022-10-03T17:23:56.634Z,14.10
2022-10-03T17:26:36.367Z,14.00
2022-10-03T17:29:19.015Z,13.80
2022-10-03T17:32:08.113Z,13.60
2022-10-03T17:34:46.113Z,13.50
2022-10-03T17:37:45.522Z,13.40
2022-10-03T17:40:32.746Z,13.10
2022-10-03T17:43:10.225Z,12.90
2022-10-03T17:46:04.169Z,12.80
2022-10-03T17:49:03.868Z,12.80
2022-10-03T17:51:41.050Z,12.80
2022-10-03T17:54:28.014Z,12.70
2022-10-03T17:57:17.584Z,12.60
2022-10-03T17:59:54.988Z,12.40
2022-10-03T18:02:45.255Z,12.30
2022-10-03T18:05:16.884Z,12.30
2022-10-03T18:07:44.958Z,12.30
2022-10-03T18:10:24.010Z,12.40
2022-10-03T18:12:54.152Z,12.40
2022-10-03T18:15:41.337Z,12.40
2022-10-03T18:18:29.968Z,12.30
2022-10-03T18:21:27.013Z,12.10
2022-10-03T18:24:18.585Z,12.10
2022-10-03T18:26:51.619Z,12.10
2022-10-03T18:29:31.639Z,12.10
2022-10-03T18:32:10.876Z,11.90
2022-10-03T18:34:44.927Z,11.80
2022-10-03T18:37:27.066Z,11.80
2022-10-03T18:40:03.206Z,11.80
2022-10-03T18:42:31.064Z,11.90
2022-10-03T18:45:00.360Z,11.80
2022-10-03T18:47:38.569Z,11.80
2022-10-03T18:50:27.794Z,11.80
2022-10-03T18:53:16.518Z,11.70
2022-10-03T18:55:48.457Z,11.70
2022-10-03T18:58:27.892Z,11.60
2022-10-03T19:01:17.500Z,11.50
2022-10-03T19:03:59.429Z,11.50
2022-10-03T19:06:30.508Z,11.40
2022-10-03T19:09:02.385Z,11.30
2022-10-03T19:11:34.346Z,11.30
2022-10-03T19:14:17.746Z,11.30
2022-10-03T19:17:23.566Z,11.20
2022-10-03T19:19:58.565Z,11.20
2022-10-03T19:22:52.678Z,11.20
2022-10-03T19:25:25.963Z,11.10
2022-10-03T19:27:58.791Z,11.20
2022-10-03T19:30:27.745Z,11.10
2022-10-03T19:33:09.611Z,11.10
2022-10-03T19:35:45.244Z,11.10
2022-10-03T19:38:16.571Z,11.00
2022-10-03T19:41:16.655Z,11.00
2022-10-03T19:43:51.907Z,11.00
2022-10-03T19:46:32.855Z,10.90
2022-10-03T19:49:44.274Z,10.90
2022-10-03T19:52:21.092Z,10.90
2022-10-03T19:55:33.853Z,10.80
2022-10-03T19:58:24.679Z,10.80
2022-10-03T20:00:58.599Z,10.70
2022-10-03T20:03:52.445Z,10.70
2022-10-03T20:06:30.535Z,10.60
2022-10-03T20:09:05.327Z,10.60
2022-10-03T20:11:53.210Z,10.60
2022-10-03T20:14:26.791Z,10.50
2022-10-03T20:17:01.131Z,10.60
2022-10-03T20:19:35.999Z,10.60
2022-10-03T20:22:04.788Z,10.60
2022-10-03T20:24:36.432Z,10.60
2022-10-03T20:27:30.216Z,10.70
2022-10-03T20:30:22.114Z,10.60
2022-10-03T20:32:51.063Z,10.60
2022-10-03T20:35:29.580Z,10.60
2022-10-03T20:38:25.577Z,10.60
2022-10-03T20:41:10.074Z,10.60
2022-10-03T20:43:44.871Z,10.60
2022-10-03T20:46:18.781Z,10.60
2022-10-03T20:49:12.587Z,10.60
2022-10-03T20:51:55.520Z,10.50
2022-10-03T20:54:25.718Z,10.40
2022-10-03T20:57:03.913Z,10.30
2022-10-03T20:59:41.554Z,10.30
2022-10-03T21:02:29.780Z,10.20
2022-10-03T21:05:00.647Z,10.00
2022-10-03T21:07:48.624Z,9.80
2022-10-03T21:10:31.613Z,9.60
2022-10-03T21:13:02.638Z,9.60
2022-10-03T21:15:51.803Z,9.70
2022-10-03T21:18:36.117Z,9.70
2022-10-03T21:21:06.668Z,9.70
2022-10-03T21:23:49.730Z,9.70
2022-10-03T21:26:26.637Z,9.60
2022-10-03T21:29:16.953Z,9.50
2022-10-03T21:31:57.116Z,9.50
2022-10-03T21:34:34.716Z,9.60
2022-10-03T21:37:19.418Z,9.50
2022-10-03T21:40:17.124Z,9.50
2022-10-03T21:42:59.491Z,9.60
2022-10-03T21:45:35.058Z,9.70
2022-10-03T21:48:12.339Z,9.70
2022-10-03T21:50:50.235Z,9.70
2022-10-03T21:53:28.007Z,9.70
2022-10-03T21:56:11.490Z,9.70
2022-10-03T21:59:09.293Z,9.60
2022-10-03T22:01:42.333Z,9.50
2022-10-03T22:04:25.271Z,9.40
2022-10-03T22:07:10.871Z,9.40
2022-10-03T22:09:46.530Z,9.30
2022-10-03T22:12:15.720Z,9.30
2022-10-03T22:14:50.392Z,9.30
2022-10-03T22:17:29.238Z,9.30
2022-10-03T22:20:12.983Z,9.40
2022-10-03T22:22:55.310Z,9.30
2022-10-03T22:25:30.211Z,9.30
2022-10-03T22:28:29.145Z,9.30
2022-10-03T22:31:08.241Z,9.40
2022-10-03T22:33:41.343Z,9.30
2022-10-03T22:36:11.737Z,9.30
2022-10-03T22:38:40.739Z,9.30
2022-10-03T22:41:12.534Z,9.40
2022-10-03T22:43:42.155Z,9.40
2022-10-03T22:46:12.923Z,9.50
2022-10-03T22:48:50.896Z,9.50
2022-10-03T22:51:20.863Z,9.40
2022-10-03T22:53:52.490Z,9.40
2022-10-03T22:56:46.677Z,9.30
2022-10-03T22:59:19.354Z,9.30
2022-10-03T23:01:49.844Z,9.30
2022-10-03T23:04:40.415Z,9.20
2022-10-03T23:07:36.945Z,9.20
2022-10-03T23:10:06.928Z,9.10
2022-10-03T23:12:46.076Z,9.00
2022-10-03T23:15:19.020Z,9.10
2022-10-03T23:17:51.919Z,9.00
2022-10-03T23:20:40.675Z,8.90
2022-10-03T23:23:16.601Z,8.90
2022-10-03T23:26:22.362Z,8.90
2022-10-03T23:29:16.074Z,8.80
2022-10-03T23:31:50.525Z,8.70
2022-10-03T23:34:37.881Z,8.60
2022-10-03T23:37:13.783Z,8.60
2022-10-03T23:39:57.120Z,8.70
2022-10-03T23:42:30.882Z,8.60
2022-10-03T23:45:00.701Z,8.50
2022-10-03T23:47:32.668Z,8.40
2022-10-03T23:50:02.546Z,8.50
2022-10-03T23:52:36.185Z,8.60
2022-10-03T23:55:06.829Z,8.60
2022-10-03T23:57:41.853Z,8.60
